Airfield :
LOGIN :

Register | Disclaimer

   EN    FR    IT 

 










Legend :    VFR   Marginal VFR   IFR   Intensive IFR   Very Intensive IFR
Visi :
Ceiling :
>= 8 km
>= 3000ft
5 to 8 km
1000 to 3000 ft
1500m to 5 km
500 to 1000 ft
800 to 1500m
200 to 500 ft
< 800m
< 200 ft
Symbols :   Thunderstorms  Fog  Heavy snow  Heavy precipitations  Wind > 20 kt
SIGMETs :     Misc.  Thunderstorms  Icing  Turbulence  Mountain Waves  Volcanic Ashes







- Airport Elevation : 1276 ft
- IATA code : STR


EDDS - Stuttgart

CURRENT METAR :
  • 251820Z 36010KT 330V030 9999 -RA FEW005 SCT011 BKN021 04/03 Q1009 TEMPO RA BKN011

EXPIRED METARs :
  • 251750Z 36009KT 320V030 9999 -RA FEW005 SCT011 BKN025 05/03 Q1009 RERA TEMPO RA BKN011
  • 251720Z 01008KT 330V040 9999 RA FEW003 SCT011 BKN021 06/04 Q1009 TEMPO -RA BKN011
  • 251650Z 03003KT 340V080 9999 -RA FEW005 BKN011 BKN022 06/05 Q1008 RERA TEMPO RA
  • 251620Z 33004KT 300V360 9000 RA FEW005 BKN011 BKN028 06/05 Q1008 TEMPO -RA
  • 251550Z 32007KT 300V360 9999 -RA FEW007 BKN012 BKN034 07/05 Q1008 TEMPO RA
  • 251520Z 33009KT 9999 -RA FEW008 BKN012 BKN038 07/05 Q1008 TEMPO RA

TAF TAF EDDS
Valid from the 25 at 18:00 until the 26 at 18:00 UTC


251700Z 2518/2618 35005KT 9999 SCT012 BKN020
BECMG 2518/2521 BKN012
TEMPO 2518/2611 4000 RA
PROB40
TEMPO 2600/2609 2500 SNRA BKN008
PROB30
TEMPO 2600/2605 1200 SN
BECMG 2611/2613 SCT015 BKN025
No reported NOTAMs for that airfield.



MET'MAP, your aeronautical weather chart ! - Copyright ORBIFLY December 2007 - Disclaimer

ORBIFLY MET'MAP TEAM :

Programming & Development : Alexandra Zaïnal
Concept & Development : Baudouin d'Aumeries
Co-Development & Prog : Marc-Olivier Méhu
Technical & hardware support : Manuel Goepfert

Contact : metmap@orbifly.com




SOURCES & CREDITS :

   NOAA